createdAt,value
2023-02-01T00:01:25.774Z,100890.58
2023-02-01T00:03:54.208Z,100890.35
2023-02-01T00:06:22.843Z,100891.05
2023-02-01T00:08:54.997Z,100891.37
2023-02-01T00:11:25.542Z,100885.28
2023-02-01T00:13:54.452Z,100891.10
2023-02-01T00:16:26.819Z,100889.58
2023-02-01T00:19:08.908Z,100889.98
2023-02-01T00:21:37.297Z,100893.42
2023-02-01T00:24:06.569Z,100891.03
2023-02-01T00:26:41.370Z,100890.23
2023-02-01T00:29:18.924Z,100889.65
2023-02-01T00:31:47.855Z,100889.09
2023-02-01T00:34:17.409Z,100887.60
2023-02-01T00:36:46.140Z,100883.23
2023-02-01T00:39:14.913Z,100882.52
2023-02-01T00:41:44.517Z,100879.01
2023-02-01T00:44:13.122Z,100877.39
2023-02-01T00:46:41.632Z,100869.05
2023-02-01T00:49:10.398Z,100869.06
2023-02-01T00:51:38.778Z,100865.27
2023-02-01T00:54:06.962Z,100865.17
2023-02-01T00:56:35.469Z,100864.92
2023-02-01T00:59:04.145Z,100867.55
2023-02-01T01:01:32.727Z,100862.48
2023-02-01T01:04:01.219Z,100863.56
2023-02-01T01:06:31.963Z,100859.34
2023-02-01T01:09:02.593Z,100856.41
2023-02-01T01:11:34.361Z,100863.04
2023-02-01T01:14:03.458Z,100856.69
2023-02-01T01:16:33.432Z,100853.71
2023-02-01T01:19:02.480Z,100851.64
2023-02-01T01:21:32.598Z,100852.31
2023-02-01T01:24:01.203Z,100854.27
2023-02-01T01:26:31.062Z,100854.33
2023-02-01T01:29:00.455Z,100850.33
2023-02-01T01:31:29.544Z,100852.33
2023-02-01T01:34:00.254Z,100851.77
2023-02-01T01:36:30.377Z,100847.06
2023-02-01T01:38:58.860Z,100845.86
2023-02-01T01:41:31.807Z,100844.04
2023-02-01T01:44:07.434Z,100841.63
2023-02-01T01:46:42.088Z,100840.34
2023-02-01T01:49:21.765Z,100836.52
2023-02-01T01:51:58.964Z,100836.95
2023-02-01T01:54:38.502Z,100837.69
2023-02-01T01:57:18.944Z,100839.40
2023-02-01T01:59:54.505Z,100833.14
2023-02-01T02:02:22.959Z,100826.01
2023-02-01T02:04:51.677Z,100828.87
2023-02-01T02:07:26.466Z,100824.91
2023-02-01T02:10:00.986Z,100827.45
2023-02-01T02:12:30.071Z,100825.81
2023-02-01T02:14:58.997Z,100820.64
2023-02-01T02:17:50.949Z,100825.27
2023-02-01T02:20:36.422Z,100823.88
2023-02-01T02:23:32.752Z,100824.55
2023-02-01T02:26:46.093Z,100823.23
2023-02-01T02:29:39.817Z,100820.15
2023-02-01T02:32:40.847Z,100814.75
2023-02-01T02:35:21.205Z,100810.23
2023-02-01T02:38:12.307Z,100804.40
2023-02-01T02:40:50.314Z,100802.30
2023-02-01T02:44:08.736Z,100805.08
2023-02-01T02:47:06.285Z,100793.92
2023-02-01T02:50:09.785Z,100795.00
2023-02-01T02:53:05.177Z,100795.97
2023-02-01T02:55:37.043Z,100795.05
2023-02-01T02:58:27.115Z,100796.59
2023-02-01T03:01:16.395Z,100799.09
2023-02-01T03:04:04.423Z,100800.52
2023-02-01T03:06:33.926Z,100803.97
2023-02-01T03:09:07.650Z,100800.83
2023-02-01T03:11:55.655Z,100804.70
2023-02-01T03:14:29.133Z,100803.85
2023-02-01T03:17:08.808Z,100801.02
2023-02-01T03:19:44.824Z,100797.91
2023-02-01T03:22:16.836Z,100796.91
2023-02-01T03:24:55.050Z,100799.96
2023-02-01T03:27:33.666Z,100798.77
2023-02-01T03:30:26.986Z,100792.63
2023-02-01T03:33:02.356Z,100786.96
2023-02-01T03:35:45.987Z,100784.02
2023-02-01T03:38:42.258Z,100789.21
2023-02-01T03:41:41.607Z,100789.83
2023-02-01T03:44:32.082Z,100792.21
2023-02-01T03:47:00.787Z,100789.14
2023-02-01T03:49:51.469Z,100786.94
2023-02-01T03:52:35.926Z,100787.88
2023-02-01T03:55:08.153Z,100790.59
2023-02-01T03:57:44.767Z,100785.37
2023-02-01T04:00:24.378Z,100777.23
2023-02-01T04:02:53.872Z,100782.23
2023-02-01T04:05:23.662Z,100782.85
2023-02-01T04:08:01.225Z,100783.89
2023-02-01T04:10:29.813Z,100776.64
2023-02-01T04:12:58.702Z,100772.55
2023-02-01T04:15:27.502Z,100776.48
2023-02-01T04:17:56.192Z,100774.29
2023-02-01T04:20:25.200Z,100771.82
2023-02-01T04:22:54.177Z,100768.98
2023-02-01T04:25:22.674Z,100777.04
2023-02-01T04:27:51.165Z,100775.27
2023-02-01T04:30:19.476Z,100773.90
2023-02-01T04:32:48.139Z,100774.48
2023-02-01T04:35:16.541Z,100775.83
2023-02-01T04:37:45.005Z,100770.67
2023-02-01T04:40:13.877Z,100765.45
2023-02-01T04:42:42.403Z,100763.36
2023-02-01T04:45:11.816Z,100771.04
2023-02-01T04:47:40.282Z,100768.42
2023-02-01T04:50:11.680Z,100753.64
2023-02-01T04:52:40.023Z,100750.63
2023-02-01T04:55:08.968Z,100741.77
2023-02-01T04:57:37.092Z,100740.09
2023-02-01T05:00:07.553Z,100736.13
2023-02-01T05:02:36.815Z,100735.02
2023-02-01T05:05:05.821Z,100736.71
2023-02-01T05:07:34.011Z,100747.27
2023-02-01T05:10:02.397Z,100750.03
2023-02-01T05:12:49.404Z,100750.61
2023-02-01T05:15:17.994Z,100749.52
2023-02-01T05:17:46.277Z,100752.59
2023-02-01T05:20:14.457Z,100754.02
2023-02-01T05:22:43.550Z,100752.40
2023-02-01T05:25:11.874Z,100749.40
2023-02-01T05:27:41.595Z,100743.60
2023-02-01T05:30:11.289Z,100741.98
2023-02-01T05:32:39.549Z,100742.36
2023-02-01T05:35:08.907Z,100738.61
2023-02-01T05:37:37.237Z,100740.70
2023-02-01T05:40:06.556Z,100744.23
2023-02-01T05:42:34.928Z,100744.20
2023-02-01T05:45:06.412Z,100744.28
2023-02-01T05:47:34.768Z,100743.62
2023-02-01T05:50:04.437Z,100745.39
2023-02-01T05:52:33.436Z,100747.39
2023-02-01T05:55:01.661Z,100752.30
2023-02-01T05:57:31.176Z,100750.06
2023-02-01T06:00:00.573Z,100747.00
2023-02-01T06:02:29.343Z,100749.05
2023-02-01T06:04:57.761Z,100748.48
2023-02-01T06:07:27.588Z,100750.67
2023-02-01T06:09:57.598Z,100750.75
2023-02-01T06:12:29.371Z,100748.94
2023-02-01T06:14:57.948Z,100747.92
2023-02-01T06:17:26.484Z,100748.59
2023-02-01T06:19:54.717Z,100753.48
2023-02-01T06:22:23.716Z,100751.48
2023-02-01T06:24:52.110Z,100747.70
2023-02-01T06:27:20.484Z,100743.21
2023-02-01T06:29:49.171Z,100744.14
2023-02-01T06:32:18.789Z,100747.80
2023-02-01T06:34:47.169Z,100749.19
2023-02-01T06:37:15.658Z,100749.46
2023-02-01T06:39:44.041Z,100748.82
2023-02-01T06:42:12.639Z,100750.07
2023-02-01T06:44:41.324Z,100755.80
2023-02-01T06:47:09.963Z,100752.48
2023-02-01T06:49:38.500Z,100751.50
2023-02-01T06:52:06.985Z,100756.02
2023-02-01T06:54:35.573Z,100752.31
2023-02-01T06:57:04.606Z,100754.70
2023-02-01T06:59:32.856Z,100755.02
2023-02-01T07:02:02.013Z,100756.02
2023-02-01T07:04:31.579Z,100756.77
2023-02-01T07:07:00.093Z,100757.13
2023-02-01T07:09:28.440Z,100754.73
2023-02-01T07:11:57.234Z,100752.30
2023-02-01T07:14:25.552Z,100747.61
2023-02-01T07:16:54.105Z,100748.25
2023-02-01T07:19:22.491Z,100746.48
2023-02-01T07:21:50.982Z,100738.77
2023-02-01T07:24:19.283Z,100734.06
2023-02-01T07:26:49.147Z,100737.05
2023-02-01T07:29:18.079Z,100741.05
2023-02-01T07:31:46.668Z,100734.09
2023-02-01T07:34:14.948Z,100735.84
2023-02-01T07:36:43.333Z,100737.20
2023-02-01T07:39:11.615Z,100732.13
2023-02-01T07:41:39.895Z,100728.31
2023-02-01T07:44:08.591Z,100732.34
2023-02-01T07:46:37.381Z,100732.86
2023-02-01T07:49:05.769Z,100733.88
2023-02-01T07:51:34.048Z,100732.79
2023-02-01T07:54:02.437Z,100735.91
2023-02-01T07:56:30.611Z,100735.45
2023-02-01T07:59:01.146Z,100737.42
2023-02-01T08:01:30.348Z,100744.39
2023-02-01T08:04:00.782Z,100748.16
2023-02-01T08:06:32.309Z,100753.85
2023-02-01T08:09:00.786Z,100752.52
2023-02-01T08:11:29.583Z,100756.20
2023-02-01T08:13:59.497Z,100751.92
2023-02-01T08:16:28.376Z,100755.88
2023-02-01T08:18:57.132Z,100759.10
2023-02-01T08:21:37.782Z,100752.04
2023-02-01T08:24:07.583Z,100755.36
2023-02-01T08:26:35.842Z,100749.70
2023-02-01T08:29:08.063Z,100746.30
2023-02-01T08:31:36.700Z,100751.77
2023-02-01T08:34:05.436Z,100746.59
2023-02-01T08:36:33.936Z,100742.83
2023-02-01T08:39:06.790Z,100736.02
2023-02-01T08:41:35.847Z,100735.64
2023-02-01T08:44:04.307Z,100729.52
2023-02-01T08:46:32.687Z,100729.80
2023-02-01T08:49:00.871Z,100729.54
2023-02-01T08:51:29.041Z,100727.37
2023-02-01T08:53:57.430Z,100730.06
2023-02-01T08:56:25.660Z,100723.70
2023-02-01T08:58:54.025Z,100719.08
2023-02-01T09:01:22.860Z,100709.65
2023-02-01T09:03:51.823Z,100702.07
2023-02-01T09:06:20.271Z,100701.55
2023-02-01T09:08:48.456Z,100699.61
2023-02-01T09:11:20.522Z,100701.27
2023-02-01T09:13:49.912Z,100697.59
2023-02-01T09:16:18.889Z,100693.83
2023-02-01T09:18:56.003Z,100687.14
2023-02-01T09:21:30.577Z,100687.33
2023-02-01T09:24:00.403Z,100687.88
2023-02-01T09:26:33.110Z,100681.48
2023-02-01T09:29:02.356Z,100680.66
2023-02-01T09:31:31.692Z,100677.55
2023-02-01T09:34:00.049Z,100674.39
2023-02-01T09:36:30.918Z,100675.88
2023-02-01T09:39:00.393Z,100676.99
2023-02-01T09:41:51.172Z,100672.28
2023-02-01T09:44:48.020Z,100661.54
2023-02-01T09:47:19.957Z,100663.99
2023-02-01T09:49:57.374Z,100661.17
2023-02-01T09:52:49.762Z,100660.15
2023-02-01T09:55:25.754Z,100659.48
2023-02-01T09:58:01.535Z,100659.27
2023-02-01T10:00:39.824Z,100653.05
2023-02-01T10:03:14.405Z,100649.77
2023-02-01T10:06:01.453Z,100649.56
2023-02-01T10:08:32.804Z,100647.14
2023-02-01T10:11:20.632Z,100647.94
2023-02-01T10:14:10.305Z,100643.83
2023-02-01T10:16:44.560Z,100647.46
2023-02-01T10:19:22.215Z,100640.34
2023-02-01T10:22:00.339Z,100644.56
2023-02-01T10:24:33.725Z,100649.38
2023-02-01T10:27:14.491Z,100652.05
2023-02-01T10:29:47.084Z,100649.50
2023-02-01T10:32:23.129Z,100652.58
2023-02-01T10:35:06.311Z,100655.98
2023-02-01T10:37:35.411Z,100648.08
2023-02-01T10:40:33.185Z,100647.35
2023-02-01T10:43:03.976Z,100650.45
2023-02-01T10:45:34.852Z,100651.02
2023-02-01T10:48:05.190Z,100643.95
2023-02-01T10:50:54.999Z,100644.17
2023-02-01T10:53:49.473Z,100643.88
2023-02-01T10:56:27.577Z,100632.86
2023-02-01T10:59:07.244Z,100628.46
2023-02-01T11:01:40.701Z,100623.92
2023-02-01T11:04:15.778Z,100617.39
2023-02-01T11:06:50.379Z,100610.68
2023-02-01T11:09:21.847Z,100604.63
2023-02-01T11:11:50.180Z,100601.08
2023-02-01T11:14:35.080Z,100598.02
2023-02-01T11:17:25.928Z,100597.05
2023-02-01T11:20:02.316Z,100595.23
2023-02-01T11:22:31.243Z,100590.31
2023-02-01T11:25:02.795Z,100585.11
2023-02-01T11:27:40.250Z,100585.84
2023-02-01T11:30:18.912Z,100582.04
2023-02-01T11:32:49.441Z,100585.15
2023-02-01T11:35:22.429Z,100585.02
2023-02-01T11:38:00.025Z,100588.89
2023-02-01T11:40:30.352Z,100582.44
2023-02-01T11:43:01.678Z,100585.37
2023-02-01T11:45:38.862Z,100587.65
2023-02-01T11:48:26.771Z,100585.67
2023-02-01T11:51:27.232Z,100590.98
2023-02-01T11:54:03.601Z,100596.42
2023-02-01T11:56:48.835Z,100596.36
2023-02-01T11:59:34.138Z,100598.96
2023-02-01T12:02:08.528Z,100601.89
2023-02-01T12:04:55.263Z,100604.27
2023-02-01T12:07:47.800Z,100606.59
2023-02-01T12:10:34.603Z,100599.34
2023-02-01T12:13:05.864Z,100604.41
2023-02-01T12:15:56.852Z,100609.48
2023-02-01T12:18:25.370Z,100606.35
2023-02-01T12:21:02.027Z,100614.13
2023-02-01T12:23:51.276Z,100610.34
2023-02-01T12:26:34.734Z,100617.35
2023-02-01T12:29:21.505Z,100619.66
2023-02-01T12:31:49.937Z,100621.66
2023-02-01T12:34:34.959Z,100619.58
2023-02-01T12:37:12.360Z,100619.49
2023-02-01T12:40:04.783Z,100626.06
2023-02-01T12:42:39.917Z,100625.63
2023-02-01T12:45:14.344Z,100628.67
2023-02-01T12:47:55.717Z,100628.30
2023-02-01T12:50:50.919Z,100630.20
2023-02-01T12:53:48.161Z,100625.66
2023-02-01T12:56:25.753Z,100614.68
2023-02-01T12:59:02.073Z,100616.91
2023-02-01T13:02:05.245Z,100623.61
2023-02-01T13:04:41.153Z,100629.89
2023-02-01T13:07:19.813Z,100634.17
2023-02-01T13:10:00.952Z,100628.95
2023-02-01T13:12:45.397Z,100628.62
2023-02-01T13:15:17.166Z,100629.45
2023-02-01T13:17:48.567Z,100631.83
2023-02-01T13:20:36.949Z,100633.79
2023-02-01T13:23:17.889Z,100632.98
2023-02-01T13:25:51.550Z,100634.32
2023-02-01T13:28:47.256Z,100630.63
2023-02-01T13:31:25.238Z,100621.71
2023-02-01T13:34:21.462Z,100628.95
2023-02-01T13:37:05.401Z,100631.83
2023-02-01T13:39:40.741Z,100631.45
2023-02-01T13:42:29.530Z,100636.83
2023-02-01T13:45:02.498Z,100631.52
2023-02-01T13:47:41.303Z,100633.38
2023-02-01T13:50:18.927Z,100641.73
2023-02-01T13:52:55.060Z,100638.13
2023-02-01T13:55:23.528Z,100639.00
2023-02-01T13:58:01.955Z,100639.15
2023-02-01T14:00:35.979Z,100638.41
2023-02-01T14:03:43.552Z,100636.58
2023-02-01T14:06:27.679Z,100638.75
2023-02-01T14:09:14.277Z,100636.12
2023-02-01T14:11:52.124Z,100641.83
2023-02-01T14:14:20.373Z,100639.73
2023-02-01T14:16:55.080Z,100640.30
2023-02-01T14:19:26.558Z,100644.83
2023-02-01T14:22:02.362Z,100649.54
2023-02-01T14:24:35.920Z,100647.71
2023-02-01T14:27:19.731Z,100647.18
2023-02-01T14:30:06.159Z,100646.38
2023-02-01T14:32:43.416Z,100646.92
2023-02-01T14:35:27.987Z,100651.36
2023-02-01T14:38:04.023Z,100650.96
2023-02-01T14:40:33.117Z,100652.17
2023-02-01T14:43:01.614Z,100653.78
2023-02-01T14:45:30.440Z,100654.16
2023-02-01T14:48:07.655Z,100658.23
2023-02-01T14:50:43.786Z,100655.52
2023-02-01T14:53:12.799Z,100656.98
2023-02-01T14:56:10.250Z,100656.77
2023-02-01T14:58:48.426Z,100660.15
2023-02-01T15:01:36.984Z,100660.63
2023-02-01T15:04:27.850Z,100660.23
2023-02-01T15:06:59.460Z,100659.74
2023-02-01T15:09:30.377Z,100663.60
2023-02-01T15:11:58.971Z,100662.02
2023-02-01T15:14:29.901Z,100662.48
2023-02-01T15:16:58.394Z,100660.28
2023-02-01T15:19:29.841Z,100661.55
2023-02-01T15:21:59.925Z,100659.98
2023-02-01T15:24:32.758Z,100664.48
2023-02-01T15:27:07.132Z,100668.54
2023-02-01T15:29:35.859Z,100673.60
2023-02-01T15:32:06.018Z,100674.73
2023-02-01T15:34:49.027Z,100678.51
2023-02-01T15:37:19.695Z,100682.21
2023-02-01T15:40:20.648Z,100681.30
2023-02-01T15:42:55.303Z,100687.06
2023-02-01T15:45:28.721Z,100688.82
2023-02-01T15:47:59.641Z,100690.10
2023-02-01T15:50:31.404Z,100691.51
2023-02-01T15:53:00.204Z,100693.85
2023-02-01T15:55:34.411Z,100691.88
2023-02-01T15:58:10.368Z,100695.91
2023-02-01T16:00:47.759Z,100696.27
2023-02-01T16:03:27.301Z,100697.77
2023-02-01T16:06:01.310Z,100698.94
2023-02-01T16:08:33.054Z,100702.34
2023-02-01T16:11:10.462Z,100706.35
2023-02-01T16:13:39.047Z,100714.01
2023-02-01T16:16:10.218Z,100717.63
2023-02-01T16:18:38.482Z,100726.88
2023-02-01T16:21:09.124Z,100726.82
2023-02-01T16:23:37.887Z,100733.75
2023-02-01T16:26:07.226Z,100741.07
2023-02-01T16:28:35.601Z,100756.52
2023-02-01T16:31:04.469Z,100753.70
2023-02-01T16:33:32.780Z,100743.98
2023-02-01T16:36:03.308Z,100739.05
2023-02-01T16:38:32.637Z,100740.29
2023-02-01T16:41:02.842Z,100729.83
2023-02-01T16:43:31.736Z,100730.30
2023-02-01T16:46:04.489Z,100727.53
2023-02-01T16:48:36.765Z,100729.25
2023-02-01T16:51:10.675Z,100729.29
2023-02-01T16:53:53.443Z,100729.08
2023-02-01T16:56:29.742Z,100730.70
2023-02-01T16:58:58.518Z,100727.80
2023-02-01T17:01:27.178Z,100723.50
2023-02-01T17:03:57.091Z,100726.73
2023-02-01T17:06:28.613Z,100719.82
2023-02-01T17:08:59.149Z,100716.95
2023-02-01T17:11:31.000Z,100718.60
2023-02-01T17:14:17.537Z,100716.84
2023-02-01T17:16:48.207Z,100715.65
2023-02-01T17:19:24.733Z,100723.02
2023-02-01T17:21:56.854Z,100717.21
2023-02-01T17:24:46.581Z,100707.69
2023-02-01T17:27:18.548Z,100695.17
2023-02-01T17:29:48.577Z,100690.95
2023-02-01T17:32:25.041Z,100685.56
2023-02-01T17:34:53.945Z,100695.34
2023-02-01T17:37:29.999Z,100700.17
2023-02-01T17:39:59.093Z,100693.38
2023-02-01T17:42:29.189Z,100691.36
2023-02-01T17:45:34.877Z,100694.89
2023-02-01T17:48:05.492Z,100697.35
2023-02-01T17:50:37.507Z,100703.48
2023-02-01T17:53:09.826Z,100710.97
2023-02-01T17:55:42.519Z,100710.67
2023-02-01T17:58:15.492Z,100711.10
2023-02-01T18:00:45.983Z,100713.12
2023-02-01T18:03:28.443Z,100714.63
2023-02-01T18:05:58.466Z,100718.77
2023-02-01T18:08:29.626Z,100723.76
2023-02-01T18:11:01.176Z,100724.80
2023-02-01T18:13:31.512Z,100719.96
2023-02-01T18:16:02.035Z,100724.16
2023-02-01T18:18:33.591Z,100723.07
2023-02-01T18:21:02.176Z,100716.81
2023-02-01T18:23:30.970Z,100714.07
2023-02-01T18:25:59.179Z,100725.56
2023-02-01T18:28:27.741Z,100725.65
2023-02-01T18:30:57.017Z,100728.98
2023-02-01T18:33:25.226Z,100723.33
2023-02-01T18:35:53.607Z,100722.09
2023-02-01T18:38:21.789Z,100727.05
2023-02-01T18:40:57.972Z,100720.09
2023-02-01T18:43:28.783Z,100717.02
2023-02-01T18:45:57.295Z,100711.84
2023-02-01T18:48:26.298Z,100710.87
2023-02-01T18:50:57.907Z,100707.23
2023-02-01T18:53:27.758Z,100700.85
2023-02-01T18:55:57.671Z,100700.66
2023-02-01T18:58:27.182Z,100702.18
2023-02-01T19:00:58.332Z,100697.94
2023-02-01T19:03:26.862Z,100695.28
2023-02-01T19:05:56.993Z,100695.34
2023-02-01T19:08:25.991Z,100702.16
2023-02-01T19:10:54.940Z,100698.98
2023-02-01T19:13:26.032Z,100693.84
2023-02-01T19:15:54.598Z,100693.42
2023-02-01T19:18:23.126Z,100690.08
2023-02-01T19:20:51.656Z,100692.45
2023-02-01T19:23:20.242Z,100695.11
2023-02-01T19:25:49.002Z,100696.39
2023-02-01T19:28:17.411Z,100697.48
2023-02-01T19:30:45.887Z,100698.91
2023-02-01T19:33:14.584Z,100702.65
2023-02-01T19:35:43.079Z,100699.21
2023-02-01T19:38:11.560Z,100694.58
2023-02-01T19:40:39.952Z,100691.70
2023-02-01T19:43:08.537Z,100700.17
2023-02-01T19:45:37.033Z,100693.02
2023-02-01T19:48:07.887Z,100693.30
2023-02-01T19:50:36.360Z,100689.46
2023-02-01T19:53:04.840Z,100689.90
2023-02-01T19:55:33.484Z,100689.41
2023-02-01T19:58:02.632Z,100684.79
2023-02-01T20:00:31.216Z,100686.55
2023-02-01T20:02:59.503Z,100690.20
2023-02-01T20:05:28.046Z,100683.15
2023-02-01T20:07:56.265Z,100683.41
2023-02-01T20:10:24.575Z,100682.35
2023-02-01T20:12:52.900Z,100686.57
2023-02-01T20:15:25.074Z,100686.38
2023-02-01T20:17:54.404Z,100685.95
2023-02-01T20:20:23.278Z,100685.00
2023-02-01T20:22:53.403Z,100681.96
2023-02-01T20:25:23.104Z,100688.05
2023-02-01T20:27:52.567Z,100686.86
2023-02-01T20:30:21.911Z,100685.82
2023-02-01T20:32:50.820Z,100694.00
2023-02-01T20:35:19.578Z,100699.48
2023-02-01T20:37:49.144Z,100702.80
2023-02-01T20:40:17.909Z,100708.16
2023-02-01T20:42:46.383Z,100711.27
2023-02-01T20:45:14.952Z,100716.92
2023-02-01T20:47:43.545Z,100715.64
2023-02-01T20:50:12.183Z,100716.60
2023-02-01T20:52:40.632Z,100714.03
2023-02-01T20:55:09.358Z,100712.98
2023-02-01T20:57:37.652Z,100714.17
2023-02-01T21:00:12.762Z,100712.92
2023-02-01T21:02:41.642Z,100715.03
2023-02-01T21:05:10.535Z,100720.09
2023-02-01T21:07:38.935Z,100718.48
2023-02-01T21:10:08.712Z,100718.37
2023-02-01T21:12:38.053Z,100722.70
2023-02-01T21:15:07.143Z,100724.09
2023-02-01T21:17:39.383Z,100723.31
2023-02-01T21:20:08.630Z,100724.05
2023-02-01T21:22:36.804Z,100719.22
2023-02-01T21:25:06.090Z,100716.91
2023-02-01T21:27:34.391Z,100715.27
2023-02-01T21:30:05.144Z,100714.73
2023-02-01T21:32:35.558Z,100713.19
2023-02-01T21:35:05.142Z,100709.56
2023-02-01T21:37:34.473Z,100710.64
2023-02-01T21:40:02.778Z,100713.01
2023-02-01T21:42:31.246Z,100710.67
2023-02-01T21:45:01.593Z,100709.79
2023-02-01T21:47:30.789Z,100706.43
2023-02-01T21:49:59.066Z,100704.73
2023-02-01T21:52:28.168Z,100699.52
2023-02-01T21:54:59.819Z,100695.09
2023-02-01T21:57:29.796Z,100694.20
2023-02-01T21:59:59.102Z,100703.98
2023-02-01T22:02:28.384Z,100703.94
2023-02-01T22:04:57.963Z,100697.58
2023-02-01T22:07:26.162Z,100700.31
2023-02-01T22:09:54.320Z,100696.39
2023-02-01T22:12:23.529Z,100690.20
2023-02-01T22:14:52.113Z,100689.91
2023-02-01T22:17:20.595Z,100687.80
2023-02-01T22:19:48.981Z,100682.16
2023-02-01T22:22:17.771Z,100680.09
2023-02-01T22:24:46.168Z,100684.64
2023-02-01T22:27:14.808Z,100689.90
2023-02-01T22:29:43.919Z,100686.67
2023-02-01T22:32:14.057Z,100684.70
2023-02-01T22:34:42.576Z,100681.55
2023-02-01T22:37:12.089Z,100683.32
2023-02-01T22:39:41.263Z,100682.62
2023-02-01T22:42:09.865Z,100682.21
2023-02-01T22:44:39.081Z,100682.65
2023-02-01T22:47:09.392Z,100685.60
2023-02-01T22:49:37.767Z,100681.36
2023-02-01T22:52:06.150Z,100678.23
2023-02-01T22:54:34.632Z,100677.50
2023-02-01T22:57:03.692Z,100681.92
2023-02-01T22:59:32.013Z,100682.61
2023-02-01T23:02:00.971Z,100680.78
2023-02-01T23:04:29.595Z,100685.10
2023-02-01T23:06:58.089Z,100684.66
2023-02-01T23:09:26.686Z,100682.23
2023-02-01T23:11:55.473Z,100672.41
2023-02-01T23:14:23.642Z,100669.73
2023-02-01T23:16:52.139Z,100668.13
2023-02-01T23:19:20.716Z,100665.22
2023-02-01T23:21:49.726Z,100661.28
2023-02-01T23:24:18.406Z,100659.96
2023-02-01T23:26:46.850Z,100658.16
2023-02-01T23:29:18.213Z,100663.50
2023-02-01T23:31:46.827Z,100670.09
2023-02-01T23:34:15.439Z,100677.79
2023-02-01T23:36:43.600Z,100678.19
2023-02-01T23:39:11.783Z,100674.13
2023-02-01T23:41:39.966Z,100672.84
2023-02-01T23:44:09.173Z,100668.09
2023-02-01T23:46:41.454Z,100666.71
2023-02-01T23:49:10.390Z,100669.75
2023-02-01T23:51:39.127Z,100671.35
2023-02-01T23:54:09.252Z,100663.95
2023-02-01T23:56:39.170Z,100668.23
2023-02-01T23:59:19.527Z,100669.04
